createdAt,value
2019-02-12T00:00:13.404Z,2.30
2019-02-12T00:02:42.074Z,2.30
2019-02-12T00:05:12.472Z,2.30
2019-02-12T00:07:40.997Z,2.20
2019-02-12T00:10:09.783Z,2.20
2019-02-12T00:12:38.406Z,2.20
2019-02-12T00:15:07.466Z,2.20
2019-02-12T00:17:36.097Z,2.20
2019-02-12T00:20:06.013Z,2.20
2019-02-12T00:22:34.587Z,2.20
2019-02-12T00:25:03.646Z,2.20
2019-02-12T00:27:32.234Z,2.30
2019-02-12T00:30:00.937Z,2.30
2019-02-12T00:32:29.495Z,2.30
2019-02-12T00:34:58.124Z,2.30
2019-02-12T00:37:26.665Z,2.30
2019-02-12T00:39:55.159Z,2.20
2019-02-12T00:42:23.705Z,2.20
2019-02-12T00:44:52.275Z,2.30
2019-02-12T00:47:20.827Z,2.30
2019-02-12T00:49:49.536Z,2.30
2019-02-12T00:52:18.154Z,2.30
2019-02-12T00:54:46.703Z,2.30
2019-02-12T00:57:15.304Z,2.30
2019-02-12T00:59:43.818Z,2.30
2019-02-12T01:02:12.494Z,2.30
2019-02-12T01:04:41.033Z,2.30
2019-02-12T01:07:09.580Z,2.30
2019-02-12T01:09:38.167Z,2.20
2019-02-12T01:12:06.725Z,2.20
2019-02-12T01:14:35.266Z,2.20
2019-02-12T01:17:03.974Z,2.20
2019-02-12T01:19:32.518Z,2.20
2019-02-12T01:22:01.174Z,2.20
2019-02-12T01:24:29.719Z,2.20
2019-02-12T01:26:58.289Z,2.20
2019-02-12T01:29:26.850Z,2.20
2019-02-12T01:31:55.388Z,2.20
2019-02-12T01:34:24.002Z,2.10
2019-02-12T01:36:52.606Z,2.10
2019-02-12T01:39:21.143Z,2.20
2019-02-12T01:41:49.701Z,2.20
2019-02-12T01:44:18.239Z,2.30
2019-02-12T01:46:46.791Z,2.30
2019-02-12T01:49:15.501Z,2.40
2019-02-12T01:51:44.042Z,2.40
2019-02-12T01:54:12.585Z,2.40
2019-02-12T01:56:41.065Z,2.40
2019-02-12T01:59:09.623Z,2.40
2019-02-12T02:01:38.103Z,2.40
2019-02-12T02:04:06.672Z,2.40
2019-02-12T02:06:35.289Z,2.40
2019-02-12T02:09:05.252Z,2.40
2019-02-12T02:11:33.714Z,2.50
2019-02-12T02:14:02.352Z,2.50
2019-02-12T02:16:30.925Z,2.50
2019-02-12T02:18:59.576Z,2.50
2019-02-12T02:21:28.324Z,2.50
2019-02-12T02:23:56.885Z,2.50
2019-02-12T02:26:25.515Z,2.50
2019-02-12T02:28:54.061Z,2.50
2019-02-12T02:31:22.623Z,2.50
2019-02-12T02:33:51.169Z,2.50
2019-02-12T02:36:19.731Z,2.50
2019-02-12T02:38:48.256Z,2.50
2019-02-12T02:41:16.910Z,2.50
2019-02-12T02:43:45.445Z,2.50
2019-02-12T02:46:14.053Z,2.50
2019-02-12T02:48:42.805Z,2.50
2019-02-12T02:51:12.070Z,2.50
2019-02-12T02:53:40.598Z,2.50
2019-02-12T02:56:09.214Z,2.50
2019-02-12T02:58:37.754Z,2.50
2019-02-12T03:01:06.335Z,2.50
2019-02-12T03:03:34.886Z,2.50
2019-02-12T03:06:03.443Z,2.50
2019-02-12T03:08:32.014Z,2.50
2019-02-12T03:11:00.556Z,2.50
2019-02-12T03:13:29.127Z,2.50
2019-02-12T03:15:57.662Z,2.50
2019-02-12T03:18:26.155Z,2.50
2019-02-12T03:20:54.711Z,2.50
2019-02-12T03:23:23.354Z,2.50
2019-02-12T03:25:51.893Z,2.40
2019-02-12T03:28:20.448Z,2.50
2019-02-12T03:30:48.996Z,2.50
2019-02-12T03:33:17.647Z,2.50
2019-02-12T03:35:46.179Z,2.50
2019-02-12T03:38:14.736Z,2.50
2019-02-12T03:40:43.418Z,2.50
2019-02-12T03:43:12.057Z,2.40
2019-02-12T03:45:40.610Z,2.40
2019-02-12T03:48:09.309Z,2.40
2019-02-12T03:50:37.973Z,2.40
2019-02-12T03:53:06.583Z,2.40
2019-02-12T03:55:35.158Z,2.40
2019-02-12T03:58:03.776Z,2.40
2019-02-12T04:00:32.463Z,2.40
2019-02-12T04:03:03.497Z,2.30
2019-02-12T04:05:32.509Z,2.40
2019-02-12T04:08:01.282Z,2.40
2019-02-12T04:10:29.961Z,2.40
2019-02-12T04:12:58.566Z,2.40
2019-02-12T04:15:27.192Z,2.40
2019-02-12T04:17:55.810Z,2.40
2019-02-12T04:20:24.489Z,2.40
2019-02-12T04:22:53.142Z,2.50
2019-02-12T04:25:21.659Z,2.40
2019-02-12T04:27:50.357Z,2.50
2019-02-12T04:30:18.911Z,2.40
2019-02-12T04:32:47.486Z,2.50
2019-02-12T04:35:16.017Z,2.50
2019-02-12T04:37:44.577Z,2.50
2019-02-12T04:40:13.366Z,2.50
2019-02-12T04:42:41.939Z,2.40
2019-02-12T04:45:11.541Z,2.40
2019-02-12T04:47:40.105Z,2.40
2019-02-12T04:50:14.038Z,2.40
2019-02-12T04:52:42.589Z,2.40
2019-02-12T04:55:12.158Z,2.40
2019-02-12T04:57:40.713Z,2.40
2019-02-12T05:00:15.039Z,2.40
2019-02-12T05:02:43.697Z,2.30
2019-02-12T05:05:12.380Z,2.40
2019-02-12T05:07:41.105Z,2.40
2019-02-12T05:10:15.381Z,2.40
2019-02-12T05:12:44.003Z,2.40
2019-02-12T05:15:12.658Z,2.40
2019-02-12T05:17:41.169Z,2.40
2019-02-12T05:20:12.484Z,2.40
2019-02-12T05:22:43.504Z,2.40
2019-02-12T05:25:11.451Z,2.40
2019-02-12T05:27:39.974Z,2.40
2019-02-12T05:30:13.164Z,2.40
2019-02-12T05:32:41.733Z,2.40
2019-02-12T05:35:10.612Z,2.40
2019-02-12T05:37:41.376Z,2.50
2019-02-12T05:40:11.022Z,2.50
2019-02-12T05:42:39.587Z,2.50
2019-02-12T05:45:12.860Z,2.40
2019-02-12T05:47:41.553Z,2.50
2019-02-12T05:50:15.527Z,2.50
2019-02-12T05:52:53.316Z,2.50
2019-02-12T05:55:14.376Z,2.40
2019-02-12T05:57:42.902Z,2.30
2019-02-12T06:00:18.844Z,2.40
2019-02-12T06:02:47.384Z,2.40
2019-02-12T06:05:26.611Z,2.40
2019-02-12T06:07:55.307Z,2.30
2019-02-12T06:10:23.837Z,2.30
2019-02-12T06:12:52.394Z,2.30
2019-02-12T06:15:21.078Z,2.20
2019-02-12T06:17:51.799Z,2.20
2019-02-12T06:20:20.387Z,2.20
2019-02-12T06:22:48.898Z,2.20
2019-02-12T06:25:17.432Z,2.20
2019-02-12T06:27:46.213Z,2.30
2019-02-12T06:30:14.811Z,2.20
2019-02-12T06:32:44.753Z,2.20
2019-02-12T06:35:13.608Z,2.10
2019-02-12T06:37:42.750Z,2.20
2019-02-12T06:40:12.031Z,2.20
2019-02-12T06:42:40.659Z,2.20
2019-02-12T06:45:11.327Z,2.30
2019-02-12T06:47:39.828Z,2.20
2019-02-12T06:50:11.461Z,2.30
2019-02-12T06:52:39.919Z,2.30
2019-02-12T06:55:11.660Z,2.30
2019-02-12T06:57:40.333Z,2.30
2019-02-12T07:00:13.684Z,2.40
2019-02-12T07:03:01.724Z,2.40
2019-02-12T07:05:30.387Z,2.40
2019-02-12T07:08:16.867Z,2.40
2019-02-12T07:10:45.589Z,2.30
2019-02-12T07:13:25.508Z,2.30
2019-02-12T07:15:57.662Z,2.30
2019-02-12T07:18:38.054Z,2.30
2019-02-12T07:21:21.356Z,2.30
2019-02-12T07:24:07.853Z,2.30
2019-02-12T07:26:58.883Z,2.10
2019-02-12T07:29:36.165Z,2.10
2019-02-12T07:32:27.410Z,2.20
2019-02-12T07:35:01.879Z,2.10
2019-02-12T07:38:05.194Z,2.10
2019-02-12T07:40:36.828Z,2.10
2019-02-12T07:43:14.262Z,2.10
2019-02-12T07:45:51.667Z,2.00
2019-02-12T07:48:39.857Z,2.10
2019-02-12T07:51:23.185Z,2.10
2019-02-12T07:54:03.536Z,2.10
2019-02-12T07:56:43.961Z,2.10
2019-02-12T07:59:43.915Z,2.10
2019-02-12T08:02:28.611Z,2.10
2019-02-12T08:05:07.196Z,2.30
2019-02-12T08:07:38.807Z,2.20
2019-02-12T08:10:25.468Z,2.20
2019-02-12T08:13:13.845Z,2.30
2019-02-12T08:15:57.495Z,2.20
2019-02-12T08:18:47.022Z,2.20
2019-02-12T08:21:24.610Z,2.20
2019-02-12T08:24:08.214Z,2.30
2019-02-12T08:26:57.751Z,2.20
2019-02-12T08:29:56.754Z,2.30
2019-02-12T08:32:29.714Z,2.40
2019-02-12T08:35:13.163Z,2.40
2019-02-12T08:38:18.159Z,2.50
2019-02-12T08:40:49.717Z,2.60
2019-02-12T08:43:30.090Z,2.60
2019-02-12T08:46:07.746Z,2.70
2019-02-12T08:48:59.262Z,2.80
2019-02-12T08:51:31.014Z,2.80
2019-02-12T08:54:22.093Z,2.90
2019-02-12T08:57:18.053Z,2.90
2019-02-12T08:59:55.781Z,3.00
2019-02-12T09:02:45.435Z,3.00
2019-02-12T09:05:34.522Z,3.00
2019-02-12T09:08:24.325Z,3.00
2019-02-12T09:11:24.604Z,3.00
2019-02-12T09:14:02.045Z,3.00
2019-02-12T09:16:42.448Z,3.00
2019-02-12T09:19:19.626Z,3.10
2019-02-12T09:21:53.918Z,3.10
2019-02-12T09:24:40.396Z,3.10
2019-02-12T09:27:15.023Z,3.10
2019-02-12T09:29:52.312Z,3.20
2019-02-12T09:32:26.755Z,3.20
2019-02-12T09:35:01.049Z,3.20
2019-02-12T09:37:35.437Z,3.10
2019-02-12T09:40:23.646Z,3.20
2019-02-12T09:43:14.764Z,3.10
2019-02-12T09:46:02.641Z,3.20
2019-02-12T09:48:40.135Z,3.30
2019-02-12T09:51:14.627Z,3.20
2019-02-12T09:53:52.126Z,3.20
2019-02-12T09:56:23.761Z,3.20
2019-02-12T09:59:03.603Z,3.20
2019-02-12T10:02:11.700Z,3.10
2019-02-12T10:05:01.486Z,3.20
2019-02-12T10:07:36.034Z,3.10
2019-02-12T10:10:22.770Z,3.20
2019-02-12T10:13:11.030Z,3.30
2019-02-12T10:15:42.694Z,3.30
2019-02-12T10:18:14.318Z,3.30
2019-02-12T10:21:02.637Z,3.30
2019-02-12T10:23:53.839Z,3.30
2019-02-12T10:26:40.745Z,3.40
2019-02-12T10:29:18.185Z,3.30
2019-02-12T10:31:45.665Z,3.50
2019-02-12T10:34:14.388Z,3.60
2019-02-12T10:36:43.165Z,3.70
2019-02-12T10:39:11.817Z,3.90
2019-02-12T10:41:40.434Z,3.90
2019-02-12T10:44:09.058Z,3.90
2019-02-12T10:46:37.586Z,3.80
2019-02-12T10:49:06.270Z,3.90
2019-02-12T10:51:35.016Z,3.90
2019-02-12T10:54:03.698Z,4.00
2019-02-12T10:56:32.410Z,4.30
2019-02-12T10:59:00.962Z,4.60
2019-02-12T11:01:29.551Z,4.70
2019-02-12T11:03:58.221Z,4.60
2019-02-12T11:06:26.799Z,4.60
2019-02-12T11:08:55.612Z,4.60
2019-02-12T11:11:24.294Z,4.30
2019-02-12T11:13:52.986Z,4.30
2019-02-12T11:16:21.660Z,4.30
2019-02-12T11:18:50.281Z,4.30
2019-02-12T11:21:18.953Z,4.20
2019-02-12T11:23:47.625Z,4.40
2019-02-12T11:26:16.180Z,4.50
2019-02-12T11:28:44.884Z,4.50
2019-02-12T11:31:13.638Z,4.60
2019-02-12T11:33:42.409Z,4.80
2019-02-12T11:36:11.027Z,4.80
2019-02-12T11:38:39.657Z,4.80
2019-02-12T11:41:08.284Z,4.50
2019-02-12T11:43:36.910Z,4.70
2019-02-12T11:46:05.592Z,4.60
2019-02-12T11:48:34.300Z,4.40
2019-02-12T11:51:02.846Z,4.50
2019-02-12T11:53:31.464Z,4.40
2019-02-12T11:55:59.929Z,4.50
2019-02-12T11:58:28.666Z,4.90
2019-02-12T12:00:58.838Z,4.90
2019-02-12T12:03:27.418Z,4.80
2019-02-12T12:05:56.205Z,4.90
2019-02-12T12:08:24.790Z,4.80
2019-02-12T12:10:53.493Z,5.10
2019-02-12T12:13:22.160Z,5.30
2019-02-12T12:15:50.762Z,4.90
2019-02-12T12:18:19.360Z,4.80
2019-02-12T12:20:48.067Z,4.70
2019-02-12T12:23:16.607Z,4.60
2019-02-12T12:25:45.263Z,4.50
2019-02-12T12:28:13.798Z,4.60
2019-02-12T12:30:42.422Z,4.70
2019-02-12T12:33:11.139Z,4.70
2019-02-12T12:35:39.767Z,4.70
2019-02-12T12:38:08.453Z,4.70
2019-02-12T12:40:37.110Z,4.60
2019-02-12T12:43:05.678Z,4.40
2019-02-12T12:45:34.271Z,4.30
2019-02-12T12:48:03.029Z,4.30
2019-02-12T12:50:31.578Z,4.30
2019-02-12T12:53:00.226Z,4.40
2019-02-12T12:55:28.843Z,4.30
2019-02-12T12:57:57.412Z,4.20
2019-02-12T13:00:26.142Z,4.20
2019-02-12T13:02:54.843Z,4.20
2019-02-12T13:05:23.473Z,4.20
2019-02-12T13:07:52.047Z,4.20
2019-02-12T13:10:21.649Z,4.20
2019-02-12T13:12:50.261Z,4.30
2019-02-12T13:15:18.928Z,4.40
2019-02-12T13:17:47.554Z,4.50
2019-02-12T13:20:17.893Z,4.50
2019-02-12T13:22:46.579Z,4.50
2019-02-12T13:25:15.375Z,4.50
2019-02-12T13:27:43.987Z,4.70
2019-02-12T13:30:15.719Z,4.70
2019-02-12T13:32:44.293Z,4.90
2019-02-12T13:35:13.395Z,5.00
2019-02-12T13:37:42.029Z,5.00
2019-02-12T13:40:12.151Z,4.90
2019-02-12T13:42:40.810Z,5.00
2019-02-12T13:45:12.534Z,4.80
2019-02-12T13:47:41.101Z,4.60
2019-02-12T13:50:11.334Z,4.70
2019-02-12T13:52:39.951Z,4.70
2019-02-12T13:55:17.468Z,4.80
2019-02-12T13:57:42.454Z,5.20
2019-02-12T14:00:18.413Z,5.00
2019-02-12T14:02:47.088Z,4.90
2019-02-12T14:05:21.868Z,4.80
2019-02-12T14:07:50.610Z,4.80
2019-02-12T14:10:19.321Z,4.70
2019-02-12T14:12:47.972Z,4.80
2019-02-12T14:15:16.591Z,4.70
2019-02-12T14:17:45.210Z,4.80
2019-02-12T14:20:15.025Z,4.70
2019-02-12T14:22:43.646Z,4.60
2019-02-12T14:25:13.732Z,4.70
2019-02-12T14:27:42.409Z,4.60
2019-02-12T14:30:15.382Z,4.60
2019-02-12T14:32:44.064Z,4.80
2019-02-12T14:35:13.352Z,4.80
2019-02-12T14:37:41.962Z,4.80
2019-02-12T14:40:12.902Z,4.80
2019-02-12T14:42:41.612Z,4.80
2019-02-12T14:45:18.818Z,4.90
2019-02-12T14:47:47.580Z,4.80
2019-02-12T14:50:20.498Z,4.80
2019-02-12T14:52:49.153Z,4.90
2019-02-12T14:55:17.831Z,4.90
2019-02-12T14:57:46.521Z,4.80
2019-02-12T15:00:19.000Z,4.70
2019-02-12T15:02:47.733Z,4.70
2019-02-12T15:05:16.398Z,4.60
2019-02-12T15:07:45.109Z,4.60
2019-02-12T15:10:16.708Z,4.50
2019-02-12T15:12:45.273Z,4.30
2019-02-12T15:15:13.926Z,4.40
2019-02-12T15:17:42.546Z,4.30
2019-02-12T15:20:12.255Z,4.20
2019-02-12T15:22:41.027Z,4.20
2019-02-12T15:25:10.735Z,4.10
2019-02-12T15:27:39.352Z,4.00
2019-02-12T15:30:11.454Z,3.90
2019-02-12T15:32:40.077Z,4.00
2019-02-12T15:35:10.425Z,3.90
2019-02-12T15:37:39.146Z,3.90
2019-02-12T15:40:13.561Z,3.90
2019-02-12T15:42:42.090Z,3.80
2019-02-12T15:45:13.353Z,3.80
2019-02-12T15:47:41.885Z,3.90
2019-02-12T15:50:11.527Z,4.00
2019-02-12T15:52:40.258Z,3.90
2019-02-12T15:55:11.287Z,3.90
2019-02-12T15:57:40.501Z,3.90
2019-02-12T16:00:13.255Z,3.80
2019-02-12T16:02:41.826Z,3.70
2019-02-12T16:05:12.475Z,3.80
2019-02-12T16:07:42.626Z,3.80
2019-02-12T16:10:14.825Z,3.80
2019-02-12T16:12:44.327Z,3.80
2019-02-12T16:15:14.906Z,3.70
2019-02-12T16:17:43.604Z,3.60
2019-02-12T16:20:13.459Z,3.70
2019-02-12T16:22:42.179Z,3.70
2019-02-12T16:25:13.023Z,3.60
2019-02-12T16:27:41.597Z,3.60
2019-02-12T16:30:20.788Z,3.60
2019-02-12T16:32:49.346Z,3.60
2019-02-12T16:35:18.686Z,3.60
2019-02-12T16:37:47.422Z,3.70
2019-02-12T16:40:19.731Z,3.60
2019-02-12T16:42:48.386Z,3.60
2019-02-12T16:45:37.898Z,3.60
2019-02-12T16:48:06.608Z,3.60
2019-02-12T16:50:35.210Z,3.60
2019-02-12T16:53:03.927Z,3.60
2019-02-12T16:55:32.378Z,3.60
2019-02-12T16:58:01.085Z,3.60
2019-02-12T17:00:29.766Z,3.60
2019-02-12T17:02:58.405Z,3.60
2019-02-12T17:05:27.020Z,3.60
2019-02-12T17:07:55.666Z,3.60
2019-02-12T17:10:24.214Z,3.50
2019-02-12T17:12:52.769Z,3.50
2019-02-12T17:15:21.316Z,3.50
2019-02-12T17:17:49.860Z,3.50
2019-02-12T17:20:23.218Z,3.40
2019-02-12T17:22:51.710Z,3.30
2019-02-12T17:25:20.310Z,3.30
2019-02-12T17:27:48.926Z,3.30
2019-02-12T17:30:18.409Z,3.20
2019-02-12T17:32:47.086Z,3.20
2019-02-12T17:35:15.729Z,3.20
2019-02-12T17:37:44.403Z,3.20
2019-02-12T17:40:17.065Z,3.20
2019-02-12T17:42:45.763Z,3.20
2019-02-12T17:45:18.161Z,3.20
2019-02-12T17:47:46.842Z,3.10
2019-02-12T17:50:15.943Z,3.10
2019-02-12T17:52:44.555Z,3.20
2019-02-12T17:55:13.255Z,3.10
2019-02-12T17:57:41.898Z,3.10
2019-02-12T18:00:26.111Z,3.20
2019-02-12T18:02:54.778Z,3.20
2019-02-12T18:05:23.398Z,3.20
2019-02-12T18:07:52.059Z,3.10
2019-02-12T18:10:20.755Z,3.20
2019-02-12T18:12:49.338Z,3.30
2019-02-12T18:15:18.045Z,3.30
2019-02-12T18:17:46.689Z,3.30
2019-02-12T18:20:16.691Z,3.30
2019-02-12T18:22:45.529Z,3.30
2019-02-12T18:25:14.194Z,3.30
2019-02-12T18:27:42.829Z,3.30
2019-02-12T18:30:16.204Z,3.30
2019-02-12T18:32:44.839Z,3.30
2019-02-12T18:35:14.229Z,3.20
2019-02-12T18:37:42.802Z,3.20
2019-02-12T18:40:17.154Z,3.20
2019-02-12T18:42:45.735Z,3.20
2019-02-12T18:45:19.744Z,3.20
2019-02-12T18:47:48.369Z,3.20
2019-02-12T18:50:17.077Z,3.20
2019-02-12T18:52:45.657Z,3.10
2019-02-12T18:55:15.445Z,3.20
2019-02-12T18:57:44.075Z,3.20
2019-02-12T19:00:20.494Z,3.20
2019-02-12T19:02:49.169Z,3.20
2019-02-12T19:05:17.938Z,3.20
2019-02-12T19:07:46.559Z,3.20
2019-02-12T19:10:18.697Z,3.20
2019-02-12T19:12:47.393Z,3.20
2019-02-12T19:15:20.528Z,3.10
2019-02-12T19:18:04.189Z,3.00
2019-02-12T19:20:32.736Z,3.00
2019-02-12T19:23:01.356Z,2.80
2019-02-12T19:25:29.910Z,2.80
2019-02-12T19:27:58.495Z,2.80
2019-02-12T19:30:27.296Z,2.80
2019-02-12T19:32:55.874Z,2.80
2019-02-12T19:35:24.481Z,2.80
2019-02-12T19:37:52.983Z,2.80
2019-02-12T19:40:21.520Z,2.80
2019-02-12T19:42:50.175Z,2.90
2019-02-12T19:45:18.883Z,2.80
2019-02-12T19:47:47.509Z,2.80
2019-02-12T19:50:16.213Z,2.80
2019-02-12T19:52:44.714Z,2.70
2019-02-12T19:55:13.388Z,2.70
2019-02-12T19:57:41.981Z,2.70
2019-02-12T20:00:17.218Z,2.60
2019-02-12T20:02:46.019Z,2.60
2019-02-12T20:05:14.808Z,2.60
2019-02-12T20:07:43.338Z,2.60
2019-02-12T20:10:14.146Z,2.60
2019-02-12T20:12:42.759Z,2.60
2019-02-12T20:15:17.368Z,2.50
2019-02-12T20:17:46.087Z,2.50
2019-02-12T20:20:14.798Z,2.60
2019-02-12T20:22:43.481Z,2.60
2019-02-12T20:25:12.509Z,2.50
2019-02-12T20:27:41.248Z,2.50
2019-02-12T20:30:14.501Z,2.40
2019-02-12T20:32:43.039Z,2.40
2019-02-12T20:35:17.230Z,2.40
2019-02-12T20:37:45.842Z,2.40
2019-02-12T20:40:14.782Z,2.60
2019-02-12T20:42:43.376Z,2.70
2019-02-12T20:45:14.177Z,2.60
2019-02-12T20:47:42.841Z,2.40
2019-02-12T20:50:23.323Z,2.30
2019-02-12T20:52:52.018Z,2.30
2019-02-12T20:55:20.745Z,2.20
2019-02-12T20:57:49.376Z,2.20
2019-02-12T21:00:25.186Z,2.20
2019-02-12T21:02:53.786Z,2.20
2019-02-12T21:05:22.674Z,2.20
2019-02-12T21:07:51.274Z,2.20
2019-02-12T21:10:21.098Z,2.20
2019-02-12T21:12:49.727Z,2.20
2019-02-12T21:15:23.691Z,2.10
2019-02-12T21:17:52.536Z,2.10
2019-02-12T21:20:21.131Z,2.00
2019-02-12T21:22:49.774Z,2.00
2019-02-12T21:25:18.394Z,2.00
2019-02-12T21:27:47.038Z,2.00
2019-02-12T21:30:18.514Z,1.90
2019-02-12T21:32:47.082Z,1.90
2019-02-12T21:35:15.854Z,1.90
2019-02-12T21:37:44.497Z,1.80
2019-02-12T21:40:18.416Z,1.80
2019-02-12T21:42:47.389Z,1.80
2019-02-12T21:45:18.312Z,1.70
2019-02-12T21:47:47.032Z,1.70
2019-02-12T21:50:15.692Z,1.80
2019-02-12T21:52:44.317Z,1.70
2019-02-12T21:55:16.065Z,1.70
2019-02-12T21:57:44.632Z,1.70
2019-02-12T22:00:15.910Z,1.70
2019-02-12T22:02:44.605Z,1.70
2019-02-12T22:05:14.991Z,1.60
2019-02-12T22:07:43.671Z,1.60
2019-02-12T22:10:15.297Z,1.60
2019-02-12T22:12:43.905Z,1.60
2019-02-12T22:15:12.939Z,1.60
2019-02-12T22:17:42.045Z,1.60
2019-02-12T22:20:16.086Z,1.60
2019-02-12T22:22:44.774Z,1.60
2019-02-12T22:25:13.333Z,1.60
2019-02-12T22:27:42.037Z,1.60
2019-02-12T22:30:16.477Z,1.60
2019-02-12T22:32:45.149Z,1.60
2019-02-12T22:35:14.713Z,1.60
2019-02-12T22:37:43.430Z,1.60
2019-02-12T22:40:13.866Z,1.60
2019-02-12T22:42:42.488Z,1.60
2019-02-12T22:45:19.443Z,1.50
2019-02-12T22:47:48.163Z,1.50
2019-02-12T22:50:16.837Z,1.50
2019-02-12T22:52:45.533Z,1.50
2019-02-12T22:55:14.154Z,1.50
2019-02-12T22:57:48.821Z,1.50
2019-02-12T23:00:26.412Z,1.50
2019-02-12T23:02:55.044Z,1.50
2019-02-12T23:05:23.727Z,1.50
2019-02-12T23:07:52.357Z,1.50
2019-02-12T23:10:20.891Z,1.50
2019-02-12T23:12:49.602Z,1.50
2019-02-12T23:15:18.546Z,1.50
2019-02-12T23:17:47.117Z,1.50
2019-02-12T23:20:15.669Z,1.50
2019-02-12T23:22:44.225Z,1.50
2019-02-12T23:25:12.955Z,1.50
2019-02-12T23:27:41.576Z,1.50
2019-02-12T23:30:10.874Z,1.50
2019-02-12T23:32:39.573Z,1.40
2019-02-12T23:35:08.309Z,1.40
2019-02-12T23:37:36.841Z,1.40
2019-02-12T23:40:06.681Z,1.40
2019-02-12T23:42:35.297Z,1.40
2019-02-12T23:45:05.101Z,1.40
2019-02-12T23:47:33.635Z,1.40
2019-02-12T23:50:02.322Z,1.40
2019-02-12T23:52:30.932Z,1.40
2019-02-12T23:54:59.683Z,1.40
2019-02-12T23:57:28.227Z,1.40
2019-02-12T23:59:56.849Z,1.30
